Luca Pepi

Chefscout - FC Dallas
19 Aug 2027
Donnerstag
Verarbeitung

Persönlichkeit

Anpassungsfähigkeit (11) Ehrgeiz (9) Kontroverse (16) Loyalität (3) Druck (6) Professionalität (3) Fairness (10) Temperament (18)

Profil

Trainerstil Demokratisch
Lizenz Kontinentale A
Entschlossenheit 6
Menschenführung 4
Motivation 12
Disziplin 12
Arbeitszufriedenheit
100%
Ermüdung
0%
Rolle Chefscout
Gehalt 80.8K p/W
Vertrag 14.03.2030

Leistung

Verhalten Gut
Trainingseffektivität
46%
Spielerentwicklung
25%
Verletzungsprävention
50%
Taktische Umsetzung
40%

Letzte Ereignisse

Nahm an einer Scouting-Besprechung teil jetzt
Empfahl ein Transferziel jetzt
Empfahl ein Transferziel jetzt
Nahm an einer Scouting-Besprechung teil 7T her
Empfahl ein Transferziel 7T her
Empfahl ein Transferziel 7T her
Empfahl ein Transferziel 7T her
Nahm an einer Scouting-Besprechung teil 7T her

Aktuell beobachtet

215
Spieler Verein Status Fähigkeit Vertrauen Beobachtet Zuletzt beobachtet Letzte Stimme
Sam Rogers Chicago Fire Verloren 114 / 100 65% 1 02.08.2027 Befürworten
Christ Inao Oulaï Fiorentina Aktiv 143 / 143 40% 7 20.07.2027 -
Zane Albarus Cambridge United Aktiv 90 / 101 40% 2 20.07.2027 -
Pedro de la Vega FC Dallas Verhandlung 133 / 134 66% 1 08.07.2027 Befürworten
Jofre Torrents Ajax Aktiv 123 / 138 40% 8 07.07.2027 -
Dylan Lawlor Cardiff City Aktiv 115 / 131 40% 5 07.07.2027 -
Matías Gómez Granada Aktiv 117 / 121 40% 3 07.07.2027 -
Fuzy Taylor Medeama Aktiv 84 / 84 40% 3 06.07.2027 -
Edwin Asamoah Berekum Chelsea Aktiv 88 / 84 40% 1 06.07.2027 -
Jarvis Thornton Sheffield Wednesday Aktiv 108 / 105 40% 1 06.07.2027 -
Sascha Britschgi Padova Aktiv 116 / 130 40% 3 05.07.2027 -
Rivaldo Grobler Free State Stars Aktiv 89 / 109 40% 2 05.07.2027 -
Rhys Chadwick Leyton Orient Aktiv 98 / 109 40% 1 05.07.2027 -
Jaydee Canvot Crystal Palace Aktiv 139 / 147 40% 5 02.07.2027 -
Keagan Phiri Platinum Stars Aktiv 98 / 102 40% 3 30.06.2027 -
Johan Manzambi Newcastle United Aktiv 150 / 152 40% 3 28.06.2027 -
Daniel Dennis Ikorodu City Aktiv 87 / 94 40% 2 28.06.2027 -
Leandro Martins Benfica Aktiv 101 / 100 40% 1 26.06.2027 -
Adam Bakoune Ospitaletto Aktiv 91 / 101 40% 2 25.06.2027 -
Caleb Yirenkyi Coventry City Aktiv 131 / 138 40% 5 18.06.2027 -
Riley Owen Trento Aktiv 110 / 109 40% 4 18.06.2027 -
Josh King Chelsea Aktiv 146 / 140 40% 4 17.06.2027 -
Ezra Mayers West Ham United Aktiv 117 / 131 40% 3 17.06.2027 -
Joel Ezra Enyimba Aktiv 106 / 104 40% 3 17.06.2027 -
Olaniyi Saheed Kwara United Aktiv 84 / 99 40% 1 13.06.2027 -
Keagan Tau Ajax Cape Town Aktiv 97 / 100 40% 3 12.06.2027 -
Jan Bürger Gillingham Aktiv 114 / 122 40% 5 12.06.2027 -
Lucas Bergvall Tottenham Aktiv 140 / 147 40% 1 11.06.2027 -
Davide Bartesaghi AC Milan Aktiv 131 / 134 40% 4 09.06.2027 -
Kazunari Kita Real Sociedad Aktiv 95 / 109 40% 2 09.06.2027 -
Chari Giwa US Bougouba Aktiv 71 / 70 40% 2 08.06.2027 -
Percy Jali Free State Stars Aktiv 105 / 113 40% 10 07.06.2027 -
Josh Smith Accrington Stanley Aktiv 79 / 79 40% 4 07.06.2027 -
Finley McAllister Grimsby Town Aktiv 98 / 102 40% 4 06.06.2027 -
Yussif Saidu Zaragoza Aktiv 121 / 127 40% 4 05.06.2027 -
Lewis Miley Chelsea Aktiv 146 / 151 40% 6 03.06.2027 -
Afonso Assis Moreirense Aktiv 107 / 117 40% 1 28.05.2027 -
Felix Afful Liberty Professionals Aktiv 84 / 97 40% 3 26.05.2027 -
Ibrahim Maza Bayer Leverkusen Aktiv 138 / 144 40% 3 21.05.2027 -
Joel McGregor Swindon Town Aktiv 95 / 102 40% 1 21.05.2027 -
Martim Cunha Porto Aktiv 99 / 106 40% 1 16.05.2027 -
Joseph Nuhu Hasaacas Aktiv 79 / 97 40% 2 10.05.2027 -
Mpho Khethang AS Police Aktiv 69 / 76 40% 1 10.05.2027 -
David Atiemo Liberty Professionals Aktiv 84 / 74 40% 1 03.05.2027 -
Calum Agius Crewe Alexandra Aktiv 87 / 99 40% 1 05.04.2027 -
Kai Enslin Charlton Athletic Aktiv 89 / 102 40% 1 05.04.2027 -
Jayden Addai Como Aktiv 133 / 135 40% 1 29.03.2027 -
Facundo Torres LOSC Lille Verhandlung 134 / 134 67% 1 14.02.2027 Befürworten
Konstantin Tyukavin Inter Verhandlung 132 / 133 66% 1 14.02.2027 Befürworten
Jake Donohue Leicester City Aktiv 75 / 77 40% 1 14.02.2027 -
Luke Campbell Colchester United Aktiv 83 / 97 40% 1 14.02.2027 -
Matt O'Riley Brighton Aktiv 144 / 147 40% 2 13.02.2027 -
David Brooks Bournemouth Aktiv 145 / 142 40% 1 13.02.2027 -
Isaiah Jones Luton Town Aktiv 123 / 126 40% 1 13.02.2027 -
Everton Bala Levski Aktiv 115 / 116 40% 8 12.02.2027 -
Rocco Vata Watford Aktiv 126 / 121 40% 1 12.02.2027 -
Callum O'Hare Sheffield United Aktiv 129 / 130 40% 1 12.02.2027 -
Lorenzo Colombo Genoa Aktiv 129 / 141 40% 5 11.02.2027 -
Aune Heggebø West Bromwich Albion Aktiv 131 / 123 40% 3 11.02.2027 -
Lorent Tolaj Plymouth Argyle Aktiv 125 / 121 40% 2 11.02.2027 -
Ilyas Ansah Hull City Aktiv 133 / 135 40% 2 10.02.2027 -
Rayan Bournemouth Aktiv 141 / 134 40% 1 10.02.2027 -
Chinonso Chibueze Harrogate Town Aktiv 70 / 82 40% 1 10.02.2027 -
Giacomo Raspadori Atalanta Aktiv 155 / 140 40% 2 09.02.2027 -
Patson Daka Leicester City Aktiv 125 / 120 40% 2 09.02.2027 -
Luis Vázquez Birmingham Aktiv 126 / 126 40% 1 09.02.2027 -
Ruben van Bommel Ferencvaros Aktiv 144 / 136 40% 3 08.02.2027 -
Elijah Adebayo Luton Town Aktiv 126 / 118 40% 1 08.02.2027 -
Morgan Whittaker Middlesbrough Aktiv 128 / 126 40% 1 08.02.2027 -
Oswin Appollis Orlando Pirates Aktiv 128 / 113 40% 1 08.02.2027 -
Adrien Truffert Bournemouth Aktiv 153 / 146 40% 1 08.02.2027 -
Othmane Maamma Watford Aktiv 127 / 120 40% 1 08.02.2027 -
Florentino Luís Ipswich Town Aktiv 140 / 144 40% 2 07.02.2027 -
Nordi Mukiele Sunderland Aktiv 140 / 137 40% 1 07.02.2027 -
Stanley Mills Oxford United Aktiv 118 / 131 40% 1 07.02.2027 -
Mees Rijks Bristol Rovers Aktiv 107 / 120 40% 1 05.02.2027 -
George Hirst Stoke City Aktiv 137 / 140 40% 1 05.02.2027 -
Milan van Ewijk Mansfield Town Aktiv 134 / 132 40% 1 04.02.2027 -
Zak Swanson Bradford City Aktiv 112 / 123 40% 1 04.02.2027 -
Shea Charles Southampton Aktiv 139 / 142 40% 1 04.02.2027 -
Tyrese Campbell Sheffield United Aktiv 130 / 123 40% 2 03.02.2027 -
Talles Magno Wolverhampton Aktiv 138 / 130 40% 1 02.02.2027 -
Finn Azaz Southampton Aktiv 132 / 135 40% 1 02.02.2027 -
Riley McGree Middlesbrough Aktiv 140 / 123 40% 1 02.02.2027 -
Carlos Vicente Birmingham Aktiv 139 / 137 40% 2 01.02.2027 -
Kwame Poku Queens Park Rangers Aktiv 130 / 118 40% 1 01.02.2027 -
Mohammed Yahaya Great Olympics Aktiv 78 / 86 40% 1 01.02.2027 -
Evidence Makgopa Orlando Pirates Aktiv 114 / 120 40% 1 01.02.2027 -
Ali Ahmed Norwich City Aktiv 126 / 117 40% 1 30.01.2027 -
Wilson Isidor Sunderland Aktiv 145 / 137 40% 3 29.01.2027 -
Ethan Galbraith Swansea City Aktiv 124 / 125 40% 1 29.01.2027 -
Hamish Douglas Grimsby Town Aktiv 99 / 99 40% 1 29.01.2027 -
Hakim Sulemana Medeama Aktiv 101 / 96 40% 1 29.01.2027 -
Albert Djiku WAFA Aktiv 67 / 82 40% 1 29.01.2027 -
Domnan Panse Plateau United Aktiv 89 / 76 40% 1 29.01.2027 -
Woody Williamson Alverca Aktiv 82 / 100 40% 1 29.01.2027 -
Rhian Brewster Oxford United Aktiv 128 / 118 40% 1 26.01.2027 -
Armando Broja Burnley Aktiv 131 / 136 40% 1 24.01.2027 -
Jack McGlynn Stoke City Aktiv 131 / 135 40% 1 24.01.2027 -
Imrân Louza Watford Aktiv 139 / 136 40% 1 23.01.2027 -
Williams Manyama SuperSport United Aktiv 109 / 113 40% 2 22.01.2027 -
Sorba Thomas Stoke City Aktiv 124 / 122 40% 1 22.01.2027 -
Tyler Goodrham Oxford United Aktiv 127 / 131 40% 1 22.01.2027 -
Julián Quiñones Lokomotiv Moscow Aktiv 160 / 139 40% 3 20.01.2027 -
Oleksii Hutsuliak Polissia Aktiv 139 / 120 40% 3 20.01.2027 -
Juan Manuel Boselli Krasnodar Aktiv 129 / 128 40% 2 19.01.2027 -
Kwadwo Duah Ludogorets Aktiv 142 / 135 40% 2 18.01.2027 -
Ramiro Ruiz Rodríguez Atlético Tucumán Aktiv 113 / 122 40% 1 18.01.2027 -
Marquinhos APOEL Aktiv 144 / 134 40% 1 18.01.2027 -
Nicolò Cambiaghi Bologna Aktiv 133 / 136 40% 1 17.01.2027 -
Mfundo Vilakazi Kaizer Chiefs Aktiv 97 / 106 40% 2 16.01.2027 -
Patrick Maswanganyi Orlando Pirates Aktiv 112 / 118 40% 1 13.01.2027 -
Daniel Vernattus Metalist Aktiv 76 / 89 40% 1 08.01.2027 -
Williams Yikat Aigle Royal de Moungo Aktiv 97 / 78 40% 1 08.01.2027 -
Batxi Krasnodar Aktiv 143 / 119 40% 1 08.01.2027 -
Thalente Mbatha Orlando Pirates Aktiv 106 / 123 40% 3 07.01.2027 -
Trai Hume Sunderland Aktiv 133 / 134 40% 1 07.01.2027 -
Mandla Erasmus SuperSport United Aktiv 105 / 114 40% 1 06.01.2027 -
Zakaria Aboukhlal Torino Aktiv 128 / 135 40% 1 03.01.2027 -
Dmitry Vorobjov Krasnodar Aktiv 132 / 129 40% 4 01.01.2027 -
Breel Embolo Atlanta United FC Aktiv 146 / 143 40% 3 31.12.2026 -
Manfred Ugalde Spartak Moscow Aktiv 144 / 139 40% 9 30.12.2026 -
Ammar Ramadan DAC Dunajska Streda Aktiv 139 / 134 40% 4 30.12.2026 -
Dany Mota Monza Aktiv 133 / 122 40% 1 29.12.2026 -
Mattia Felici Cagliari Aktiv 127 / 128 40% 1 28.12.2026 -
Andrea Carboni Monza Aktiv 138 / 134 40% 1 28.12.2026 -
Femi Seriki Sheffield United Aktiv 133 / 134 40% 1 28.12.2026 -
Bénie Traoré New York City Aktiv 126 / 120 40% 4 26.12.2026 -
Yaroslav Gladyshev Dinamo Moscow Aktiv 134 / 132 40% 5 26.12.2026 -
Matías Fernández-Pardo Newcastle United Aktiv 144 / 145 40% 1 26.12.2026 -
Tomás Chancalay Minnesota United FC Aktiv 127 / 121 40% 3 25.12.2026 -
Ignacio Ramírez Newell's Old Boys Aktiv 133 / 129 40% 1 25.12.2026 -
Arthur Gomes Dinamo Moscow Aktiv 123 / 128 40% 4 24.12.2026 -
Yago Santiago Racing Santander Aktiv 121 / 122 40% 1 23.12.2026 -
Jonah James Mosta Aktiv 81 / 79 40% 1 23.12.2026 -
Isaac Essien WAFA Aktiv 90 / 101 40% 2 22.12.2026 -
Kwame Opoku Asante Kotoko Aktiv 92 / 90 40% 1 21.12.2026 -
Aidomo Emakhu Oxford United Aktiv 127 / 128 40% 1 21.12.2026 -
Rubens Dinamo Moscow Aktiv 133 / 131 40% 1 20.12.2026 -
Conrad Wallem Austria Wien Aktiv 122 / 130 40% 1 20.12.2026 -
Martín Ojeda Orlando City Aktiv 144 / 138 40% 3 18.12.2026 -
Luciano Gondou CSKA Moscow Aktiv 129 / 130 40% 12 17.12.2026 -
Mojmír Chytil NK Maribor Aktiv 144 / 128 40% 1 15.12.2026 -
Ola Brynhildsen Bodo/Glimt Aktiv 141 / 120 40% 6 14.12.2026 -
Robert Mizo Ashanti Gold Aktiv 95 / 102 40% 4 14.12.2026 -
Kwadwo Obeng Junior Heart of Lions Aktiv 81 / 92 40% 1 14.12.2026 -
Nicholas Ablido Great Olympics Aktiv 84 / 94 40% 1 14.12.2026 -
Rômulo RB Leipzig Aktiv 153 / 145 40% 4 12.12.2026 -
Tamerlan Musaev CSKA Moscow Aktiv 118 / 110 40% 1 12.12.2026 -
Edwuin Cetré Estudiantes Aktiv 140 / 127 40% 1 11.12.2026 -
Rahim Ibrahim Slovan Bratislava Aktiv 136 / 136 40% 1 11.12.2026 -
Mariano Gómez Ferencvaros Aktiv 113 / 117 40% 1 11.12.2026 -
Jonás Acevedo Instituto Aktiv 110 / 128 40% 1 05.12.2026 -
Morgan Guilavogui Real Salt Lake Aktiv 120 / 124 40% 6 04.12.2026 -
Samuel Kalu Botev Plovdiv Aktiv 129 / 118 40% 1 03.12.2026 -
Rafael Navarro St. Louis CITY SC Aktiv 125 / 129 40% 3 02.12.2026 -
Louis Munteanu DC United Aktiv 127 / 118 40% 2 30.11.2026 Mehr Infos nötig
Wessam Abou Ali Columbus Crew Aktiv 137 / 123 40% 4 28.11.2026 -
Jovon Makama Norwich City Aktiv 130 / 120 40% 2 28.11.2026 -
Sam Surridge Nashville SC Aktiv 125 / 132 40% 2 27.11.2026 -
Louis Appéré Cambridge United Aktiv 94 / 103 40% 2 26.11.2026 -
Alexis Cuello San Lorenzo Aktiv 111 / 135 40% 1 26.11.2026 -
Seidu Basit Aigle Royal de Moungo Aktiv 90 / 91 40% 1 26.11.2026 -
Jonathan Gyan Liberty Professionals Aktiv 94 / 90 40% 1 26.11.2026 -
Jesus Ferreira Seattle Sounders Aktiv 131 / 127 40% 6 22.11.2026 -
Leonardo Campana New England Revolution Aktiv 127 / 124 40% 1 21.11.2026 -
Vegard Erlien Tromso Aktiv 134 / 121 40% 1 18.11.2026 -
Kelvin Yeboah Minnesota United FC Aktiv 131 / 130 40% 2 16.11.2026 -
Bandar Yaqoob ES Setif Aktiv 120 / 117 40% 2 14.11.2026 -
Kenan Dervišagić Floriana Aktiv 106 / 92 40% 2 13.11.2026 -
Dean Erasmus Platinum Stars Aktiv 98 / 102 40% 1 13.11.2026 -
Lewis McCann Fleetwood Town Aktiv 101 / 103 40% 1 13.11.2026 -
Yeangel Montero Naxxar Lions Aktiv 100 / 102 40% 2 12.11.2026 -
Samuel Anakwe Remo Stars Aktiv 87 / 105 40% 1 12.11.2026 -
Dejan Joveljić Seattle Sounders Aktiv 127 / 119 40% 2 10.11.2026 -
Kévin Denkey FC Cincinnati Aktiv 122 / 130 40% 4 10.11.2026 -
Gabriel Jesus Barcelona Aktiv 161 / 149 40% 2 09.11.2026 -
Loïc Williams Colorado Rapids Aktiv 115 / 123 40% 1 08.11.2026 -
Etiosa Ighodaro Kaizer Chiefs Aktiv 96 / 98 40% 2 07.11.2026 -
Lassina Traoré Shakhtar Aktiv 128 / 111 40% 2 01.11.2026 -
Alexander Aravena Portland Timbers Aktiv 121 / 120 40% 2 30.10.2026 -
Okardi Inikurogha Bayelsa United Aktiv 99 / 96 40% 1 30.10.2026 -
Kein Sato FC Tokyo Aktiv 124 / 138 40% 1 27.10.2026 -
Tashreeq Matthews Mamelodi Sundowns Aktiv 104 / 120 40% 1 25.10.2026 -
Tyreece Simpson Maritzburg United Aktiv 94 / 96 40% 1 23.10.2026 -
David Miculescu FCSB Aktiv 107 / 105 40% 1 18.10.2026 -
Agustín Anello Philadelphia Union Aktiv 133 / 122 40% 1 18.10.2026 -
Itumeleng Mothiba Black Aces Aktiv 96 / 104 40% 1 18.10.2026 -
Chuchu Ramírez Nacional Aktiv 124 / 137 40% 2 15.10.2026 -
Jordan Lotomba Bloemfontein Celtic Aktiv 114 / 131 40% 1 12.10.2026 -
Gift Ngcobo Ajax Cape Town Aktiv 141 / 141 40% 1 12.10.2026 -
Sergio Reguilón Inter Miami CF Aktiv 135 / 136 40% 1 12.10.2026 -
Duncan McGuire Houston Dynamo Aktiv 131 / 129 40% 2 08.10.2026 -
Israel Reyes CSKA Moscow Aktiv 130 / 124 40% 1 06.10.2026 -
Bradley Tau SuperSport United Aktiv 122 / 129 40% 1 06.10.2026 -
Nəriman Axundzadə Columbus Crew Aktiv 113 / 123 40% 1 04.10.2026 -
Mateusz Bogusz Houston Dynamo Aktiv 123 / 132 40% 2 30.09.2026 -
Daniel Karlsbakk Sarpsborg 08 Aktiv 115 / 119 40% 2 28.09.2026 -
Luka Kurtovic NK Domzale Aktiv 125 / 129 40% 1 28.09.2026 -
Lewis Morgan SuperSport United Aktiv 138 / 113 40% 1 21.09.2026 -
Cheikh Sabaly Vancouver Whitecaps Aktiv 115 / 114 40% 3 18.09.2026 -
Dominik Fiola Haladas Aktiv 135 / 132 40% 1 14.09.2026 -
Khuliso Mudau Mamelodi Sundowns Aktiv 140 / 122 40% 1 09.09.2026 -
Teboho Mabunda SuperSport United Aktiv 112 / 119 40% 1 09.09.2026 -
Jaïro Riedewald Sheffield United Aktiv 114 / 118 40% 1 09.09.2026 -
Tadeo Allende Inter Miami CF Aktiv 115 / 120 40% 1 07.09.2026 -
Ignacio Coscio Huracán Aktiv 86 / 93 40% 1 13.08.2026 -
Lucio Latorre Racing Club Aktiv 96 / 87 40% 1 12.08.2026 -
Thiago Perruisset Boca Juniors Aktiv 75 / 100 40% 1 10.08.2026 -
Tomás Chetelain Estudiantes Aktiv 78 / 79 40% 1 08.08.2026 -
Gift Hlatshwayo Free State Stars Aktiv 83 / 96 40% 2 06.08.2026 -
Bernard Sulemana Hasaacas Aktiv 91 / 86 40% 1 06.08.2026 -
Williams Mothiba Black Aces Aktiv 77 / 91 40% 1 05.08.2026 -
Christoph Klarer Birmingham Aktiv 122 / 127 40% 1 02.08.2026 -
Igor Burnley Aktiv 140 / 144 40% 1 02.08.2026 -